Time,TemperatureF,DewpointF,PressureIn,WindDirection,WindDirectionDegrees,WindSpeedMPH,WindSpeedGustMPH,Humidity,HourlyPrecipIn,Conditions,Clouds,dailyrainin,SolarRadiationWatts/m^2,SoftwareType,DateUTC
2013-01-06 00:02:00,29.4,24.9,29.84,West,268,3.0,3.0,83,0.00,,,0.00,0,Wunderground v.1.15,2013-01-06 06:02:00,
2013-01-06 00:12:00,29.4,24.9,29.84,West,268,2.0,2.0,83,0.00,,,0.00,0,Wunderground v.1.15,2013-01-06 06:12:00,
2013-01-06 00:22:00,29.5,25.0,29.83,West,268,3.0,8.0,83,0.00,,,0.00,0,Wunderground v.1.15,2013-01-06 06:22:00,
2013-01-06 00:42:00,29.5,24.4,29.83,WNW,298,5.0,6.0,81,0.00,,,0.00,0,Wunderground v.1.15,2013-01-06 06:42:00,
2013-01-06 00:52:00,29.4,24.3,29.83,WNW,301,5.0,5.0,81,0.00,,,0.00,0,Wunderground v.1.15,2013-01-06 06:52:00,
2013-01-06 01:02:00,29.1,23.4,29.83,WNW,294,6.0,6.0,79,0.00,,,0.00,0,Wunderground v.1.15,2013-01-06 07:02:00,
2013-01-06 01:12:00,29.0,23.6,29.83,WNW,285,5.0,5.0,80,0.00,,,0.00,0,Wunderground v.1.15,2013-01-06 07:12:00,
2013-01-06 01:22:00,28.8,23.4,29.83,WNW,302,5.0,5.0,80,0.00,,,0.00,0,Wunderground v.1.15,2013-01-06 07:22:00,
2013-01-06 01:32:00,28.7,22.4,29.83,WNW,298,6.0,6.0,77,0.00,,,0.00,0,Wunderground v.1.15,2013-01-06 07:32:00,
2013-01-06 01:42:00,28.7,22.1,29.83,NW,311,4.0,4.0,76,0.00,,,0.00,0,Wunderground v.1.15,2013-01-06 07:42:00,
2013-01-06 01:52:00,28.5,21.6,29.83,WNW,295,5.0,5.0,75,0.00,,,0.00,0,Wunderground v.1.15,2013-01-06 07:52:00,
2013-01-06 02:02:00,28.2,21.6,29.83,WNW,296,5.0,7.0,76,0.00,,,0.00,0,Wunderground v.1.15,2013-01-06 08:02:00,
2013-01-06 02:12:00,27.9,21.3,29.83,WNW,296,4.0,4.0,76,0.00,,,0.00,0,Wunderground v.1.15,2013-01-06 08:12:00,
2013-01-06 02:22:00,27.6,21.0,29.84,WNW,296,4.0,4.0,76,0.00,,,0.00,0,Wunderground v.1.15,2013-01-06 08:22:00,
2013-01-06 02:32:00,27.5,20.6,29.84,WNW,288,6.0,6.0,75,0.00,,,0.00,0,Wunderground v.1.15,2013-01-06 08:32:00,
2013-01-06 02:42:00,27.2,20.3,29.84,WNW,285,5.0,6.0,75,0.00,,,0.00,0,Wunderground v.1.15,2013-01-06 08:42:00,
2013-01-06 02:52:00,27.0,20.1,29.84,WNW,287,5.0,6.0,75,0.00,,,0.00,0,Wunderground v.1.15,2013-01-06 08:52:00,
2013-01-06 03:12:00,26.7,19.8,29.84,WNW,292,5.0,9.0,75,0.00,,,0.00,0,Wunderground v.1.15,2013-01-06 09:12:00,
2013-01-06 03:22:00,26.7,19.8,29.83,WNW,289,5.0,8.0,75,0.00,,,0.00,0,Wunderground v.1.15,2013-01-06 09:22:00,
2013-01-06 03:32:00,26.7,19.8,29.83,WNW,285,5.0,6.0,75,0.00,,,0.00,0,Wunderground v.1.15,2013-01-06 09:32:00,
2013-01-06 03:42:00,26.9,20.0,29.83,WNW,285,6.0,7.0,75,0.00,,,0.00,0,Wunderground v.1.15,2013-01-06 09:42:00,
2013-01-06 03:52:00,26.9,20.0,29.83,WNW,287,6.0,6.0,75,0.00,,,0.00,0,Wunderground v.1.15,2013-01-06 09:52:00,
2013-01-06 04:02:00,26.9,20.3,29.83,WNW,294,5.0,6.0,76,0.00,,,0.00,0,Wunderground v.1.15,2013-01-06 10:02:00,
2013-01-06 04:12:00,26.9,20.3,29.83,WNW,299,6.0,6.0,76,0.00,,,0.00,0,Wunderground v.1.15,2013-01-06 10:12:00,
2013-01-06 04:22:00,26.9,20.7,29.84,WNW,295,5.0,5.0,77,0.00,,,0.00,0,Wunderground v.1.15,2013-01-06 10:22:00,
2013-01-06 04:32:00,26.9,20.7,29.84,NW,309,6.0,6.0,77,0.00,,,0.00,0,Wunderground v.1.15,2013-01-06 10:32:00,
2013-01-06 04:42:00,26.7,20.5,29.84,WNW,299,6.0,6.0,77,0.00,,,0.00,0,Wunderground v.1.15,2013-01-06 10:42:00,
2013-01-06 04:52:00,26.7,20.5,29.84,WNW,292,6.0,6.0,77,0.00,,,0.00,0,Wunderground v.1.15,2013-01-06 10:52:00,
2013-01-06 05:02:00,26.6,20.4,29.85,WNW,287,7.0,10.0,77,0.00,,,0.00,0,Wunderground v.1.15,2013-01-06 11:02:00,
2013-01-06 05:12:00,26.6,20.7,29.85,WNW,296,7.0,7.0,78,0.00,,,0.00,0,Wunderground v.1.15,2013-01-06 11:12:00,
2013-01-06 05:22:00,26.6,21.0,29.86,NW,309,5.0,5.0,79,0.00,,,0.00,0,Wunderground v.1.15,2013-01-06 11:22:00,
2013-01-06 05:32:00,26.4,20.8,29.86,NW,304,4.0,4.0,79,0.00,,,0.00,0,Wunderground v.1.15,2013-01-06 11:32:00,
2013-01-06 05:42:00,26.6,21.3,29.86,NW,313,4.0,5.0,80,0.00,,,0.00,0,Wunderground v.1.15,2013-01-06 11:42:00,
2013-01-06 05:52:00,26.6,21.3,29.87,NW,308,4.0,4.0,80,0.00,,,0.00,0,Wunderground v.1.15,2013-01-06 11:52:00,
2013-01-06 06:02:00,26.7,21.4,29.88,NW,308,3.0,3.0,80,0.00,,,0.00,0,Wunderground v.1.15,2013-01-06 12:02:00,
2013-01-06 06:12:00,26.7,21.7,29.88,NW,308,3.0,3.0,81,0.00,,,0.00,0,Wunderground v.1.15,2013-01-06 12:12:00,
2013-01-06 06:22:00,26.9,21.8,29.88,NW,308,2.0,2.0,81,0.00,,,0.00,0,Wunderground v.1.15,2013-01-06 12:22:00,
2013-01-06 06:32:00,27.0,22.2,29.89,NW,308,1.0,1.0,82,0.00,,,0.00,0,Wunderground v.1.15,2013-01-06 12:32:00,
2013-01-06 06:42:00,27.2,22.7,29.89,NW,308,2.0,3.0,83,0.00,,,0.00,0,Wunderground v.1.15,2013-01-06 12:42:00,
2013-01-06 06:52:00,27.5,23.3,29.89,NW,308,3.0,6.0,84,0.00,,,0.00,0,Wunderground v.1.15,2013-01-06 12:52:00,
2013-01-06 07:02:00,27.9,24.0,29.89,NW,308,4.0,11.0,85,0.00,,,0.00,0,Wunderground v.1.15,2013-01-06 13:02:00,
2013-01-06 07:12:00,28.5,24.6,29.89,NNW,332,7.0,8.0,85,0.00,,,0.00,0,Wunderground v.1.15,2013-01-06 13:12:00,
2013-01-06 07:22:00,28.7,24.8,29.90,NW,312,7.0,7.0,85,0.00,,,0.00,0,Wunderground v.1.15,2013-01-06 13:22:00,
2013-01-06 07:32:00,29.3,25.4,29.90,NNW,330,9.0,12.0,85,0.00,,,0.00,0,Wunderground v.1.15,2013-01-06 13:32:00,
2013-01-06 07:42:00,29.7,26.0,29.90,NNE,14,10.0,10.0,86,0.00,,,0.00,0,Wunderground v.1.15,2013-01-06 13:42:00,
2013-01-06 07:52:00,29.8,26.4,29.91,North,359,8.0,12.0,87,0.00,,,0.00,0,Wunderground v.1.15,2013-01-06 13:52:00,
2013-01-06 08:02:00,29.7,26.6,29.92,NNW,333,9.0,9.0,88,0.00,,,0.00,0,Wunderground v.1.15,2013-01-06 14:02:00,
2013-01-06 08:12:00,29.8,26.4,29.92,NNW,337,10.0,13.0,87,0.00,,,0.00,9,Wunderground v.1.15,2013-01-06 14:12:00,
2013-01-06 08:22:00,30.3,26.3,29.93,North,353,11.0,11.0,85,0.00,,,0.00,19,Wunderground v.1.15,2013-01-06 14:22:00,
2013-01-06 08:42:00,30.9,26.1,29.94,North,356,10.0,10.0,82,0.00,,,0.00,49,Wunderground v.1.15,2013-01-06 14:42:00,
2013-01-06 08:52:00,31.0,25.6,29.95,North,359,11.0,12.0,80,0.00,,,0.00,74,Wunderground v.1.15,2013-01-06 14:52:00,
2013-01-06 09:02:00,31.0,25.2,29.96,North,0,10.0,13.0,79,0.00,,,0.00,77,Wunderground v.1.15,2013-01-06 15:02:00,
2013-01-06 09:12:00,31.0,24.6,29.96,North,352,10.0,18.0,77,0.00,,,0.00,99,Wunderground v.1.15,2013-01-06 15:12:00,
2013-01-06 09:22:00,30.9,24.2,29.97,North,0,13.0,15.0,76,0.00,,,0.00,106,Wunderground v.1.15,2013-01-06 15:22:00,
2013-01-06 09:32:00,30.7,23.7,29.98,North,0,14.0,14.0,75,0.00,,,0.00,114,Wunderground v.1.15,2013-01-06 15:32:00,
2013-01-06 09:42:00,30.7,23.7,29.98,North,359,10.0,19.0,75,0.00,,,0.00,139,Wunderground v.1.15,2013-01-06 15:42:00,
2013-01-06 09:52:00,30.6,23.3,29.99,NNW,343,13.0,14.0,74,0.00,,,0.00,143,Wunderground v.1.15,2013-01-06 15:52:00,
2013-01-06 10:02:00,30.6,23.0,30.00,NNW,344,11.0,13.0,73,0.00,,,0.00,109,Wunderground v.1.15,2013-01-06 16:02:00,
2013-01-06 10:12:00,30.7,22.4,30.00,North,0,12.0,12.0,71,0.00,,,0.00,394,Wunderground v.1.15,2013-01-06 16:12:00,
2013-01-06 10:22:00,30.7,22.4,30.01,NNW,337,12.0,19.0,71,0.00,,,0.00,296,Wunderground v.1.15,2013-01-06 16:22:00,
2013-01-06 10:32:00,30.7,22.1,30.02,North,0,14.0,14.0,70,0.00,,,0.00,216,Wunderground v.1.15,2013-01-06 16:32:00,
2013-01-06 10:42:00,30.7,22.1,30.02,North,359,12.0,12.0,70,0.00,,,0.00,238,Wunderground v.1.15,2013-01-06 16:42:00,
2013-01-06 10:52:00,30.6,22.0,30.02,North,357,14.0,14.0,70,0.00,,,0.00,252,Wunderground v.1.15,2013-01-06 16:52:00,
2013-01-06 11:02:00,30.7,22.1,30.03,North,0,11.0,11.0,70,0.00,,,0.00,238,Wunderground v.1.15,2013-01-06 17:02:00,
2013-01-06 11:12:00,30.6,21.6,30.03,NNW,340,12.0,12.0,69,0.00,,,0.00,252,Wunderground v.1.15,2013-01-06 17:12:00,
2013-01-06 11:22:00,30.3,21.7,30.03,NNW,343,13.0,18.0,70,0.00,,,0.00,230,Wunderground v.1.15,2013-01-06 17:22:00,
2013-01-06 11:32:00,30.0,21.4,30.04,NNW,333,13.0,13.0,70,0.00,,,0.00,181,Wunderground v.1.15,2013-01-06 17:32:00,
2013-01-06 11:42:00,29.8,21.2,30.04,NNW,346,12.0,12.0,70,0.00,,,0.00,197,Wunderground v.1.15,2013-01-06 17:42:00,
2013-01-06 11:52:00,29.7,21.1,30.04,North,0,11.0,11.0,70,0.00,,,0.00,158,Wunderground v.1.15,2013-01-06 17:52:00,
2013-01-06 12:02:00,29.7,21.1,30.05,North,0,9.0,9.0,70,0.00,,,0.00,162,Wunderground v.1.15,2013-01-06 18:02:00,
2013-01-06 12:12:00,29.5,20.9,30.05,NNW,344,10.0,13.0,70,0.00,,,0.00,178,Wunderground v.1.15,2013-01-06 18:12:00,
2013-01-06 12:22:00,29.5,20.9,30.05,NNW,335,10.0,14.0,70,0.00,,,0.00,158,Wunderground v.1.15,2013-01-06 18:22:00,
2013-01-06 12:32:00,29.3,21.1,30.06,North,0,11.0,11.0,71,0.00,,,0.00,143,Wunderground v.1.15,2013-01-06 18:32:00,
2013-01-06 12:42:00,29.1,20.5,30.06,North,357,11.0,12.0,70,0.00,,,0.00,146,Wunderground v.1.15,2013-01-06 18:42:00,
2013-01-06 12:52:00,29.0,20.1,30.07,NNW,332,11.0,12.0,69,0.00,,,0.00,144,Wunderground v.1.15,2013-01-06 18:52:00,
2013-01-06 13:02:00,29.0,19.8,30.07,North,0,12.0,12.0,68,0.00,,,0.00,174,Wunderground v.1.15,2013-01-06 19:02:00,
2013-01-06 13:12:00,29.1,19.5,30.07,North,357,8.0,8.0,67,0.00,,,0.00,178,Wunderground v.1.15,2013-01-06 19:12:00,
2013-01-06 13:22:00,29.3,20.0,30.07,NNW,347,9.0,11.0,68,0.00,,,0.00,165,Wunderground v.1.15,2013-01-06 19:22:00,
2013-01-06 13:32:00,29.3,19.3,30.08,North,0,9.0,9.0,66,0.00,,,0.00,153,Wunderground v.1.15,2013-01-06 19:32:00,
2013-01-06 13:52:00,29.1,19.2,30.08,North,0,9.0,9.0,66,0.00,,,0.00,148,Wunderground v.1.15,2013-01-06 19:52:00,
2013-01-06 14:12:00,28.8,18.1,30.09,North,4,7.0,7.0,64,0.00,,,0.00,127,Wunderground v.1.15,2013-01-06 20:12:00,
2013-01-06 14:22:00,29.4,18.7,30.10,North,354,5.0,5.0,64,0.00,,,0.00,232,Wunderground v.1.15,2013-01-06 20:22:00,
2013-01-06 14:32:00,29.8,18.4,30.11,North,357,6.0,6.0,62,0.00,,,0.00,227,Wunderground v.1.15,2013-01-06 20:32:00,
2013-01-06 14:42:00,30.1,18.3,30.11,NW,326,9.0,10.0,61,0.00,,,0.00,260,Wunderground v.1.15,2013-01-06 20:42:00,
2013-01-06 14:52:00,30.4,18.5,30.12,North,4,8.0,11.0,61,0.00,,,0.00,218,Wunderground v.1.15,2013-01-06 20:52:00,
2013-01-06 15:12:00,30.0,18.2,30.13,North,349,6.0,7.0,61,0.00,,,0.00,137,Wunderground v.1.15,2013-01-06 21:12:00,
2013-01-06 15:22:00,30.0,18.2,30.14,NNW,344,7.0,7.0,61,0.00,,,0.00,107,Wunderground v.1.15,2013-01-06 21:22:00,
2013-01-06 15:32:00,30.1,18.3,30.15,NNE,18,5.0,7.0,61,0.00,,,0.00,76,Wunderground v.1.15,2013-01-06 21:32:00,
2013-01-06 15:42:00,29.8,17.6,30.15,North,1,6.0,6.0,60,0.00,,,0.00,69,Wunderground v.1.15,2013-01-06 21:42:00,
2013-01-06 15:52:00,29.7,17.5,30.15,NNE,16,3.0,3.0,60,0.00,,,0.00,48,Wunderground v.1.15,2013-01-06 21:52:00,
2013-01-06 16:02:00,29.4,17.6,30.16,NNE,16,3.0,3.0,61,0.00,,,0.00,26,Wunderground v.1.15,2013-01-06 22:02:00,
2013-01-06 16:12:00,28.8,17.4,30.16,NNE,13,2.0,2.0,62,0.00,,,0.00,7,Wunderground v.1.15,2013-01-06 22:12:00,
2013-01-06 16:22:00,28.4,17.4,30.17,NNE,16,2.0,2.0,63,0.00,,,0.00,0,Wunderground v.1.15,2013-01-06 22:22:00,
2013-01-06 16:42:00,27.6,17.4,30.18,NNE,16,0.0,0.0,65,0.00,,,0.00,0,Wunderground v.1.15,2013-01-06 22:42:00,
2013-01-06 16:52:00,27.2,17.3,30.19,NNE,16,0.0,0.0,66,0.00,,,0.00,0,Wunderground v.1.15,2013-01-06 22:52:00,
2013-01-06 17:12:00,26.4,16.9,30.19,NNE,16,0.0,0.0,67,0.00,,,0.00,0,Wunderground v.1.15,2013-01-06 23:12:00,
2013-01-06 17:22:00,26.1,17.0,30.20,NNE,16,0.0,0.0,68,0.00,,,0.00,0,Wunderground v.1.15,2013-01-06 23:22:00,
2013-01-06 17:32:00,25.4,16.6,30.21,NNE,16,0.0,0.0,69,0.00,,,0.00,0,Wunderground v.1.15,2013-01-06 23:32:00,
2013-01-06 17:42:00,24.2,16.1,30.21,NNE,16,0.0,0.0,71,0.00,,,0.00,0,Wunderground v.1.15,2013-01-06 23:42:00,
2013-01-06 17:52:00,23.3,15.9,30.21,NNE,16,1.0,1.0,73,0.00,,,0.00,0,Wunderground v.1.15,2013-01-06 23:52:00,
2013-01-06 18:02:00,22.9,15.8,30.21,NNE,16,0.0,0.0,74,0.00,,,0.00,0,Wunderground v.1.15,2013-01-07 00:02:00,
2013-01-06 18:12:00,22.2,15.8,30.21,NNE,16,0.0,0.0,76,0.00,,,0.00,0,Wunderground v.1.15,2013-01-07 00:12:00,
2013-01-06 18:22:00,21.6,15.5,30.22,NNE,16,0.0,0.0,77,0.00,,,0.00,0,Wunderground v.1.15,2013-01-07 00:22:00,
2013-01-06 18:42:00,20.2,14.7,30.22,NNE,16,0.0,0.0,79,0.00,,,0.00,0,Wunderground v.1.15,2013-01-07 00:42:00,
2013-01-06 18:52:00,19.9,14.7,30.24,NNE,16,0.0,0.0,80,0.00,,,0.00,0,Wunderground v.1.15,2013-01-07 00:52:00,
2013-01-06 19:02:00,20.2,15.6,30.23,NNE,16,0.0,0.0,82,0.00,,,0.00,0,Wunderground v.1.15,2013-01-07 01:02:00,
2013-01-06 19:12:00,19.7,15.1,30.23,NNE,16,0.0,0.0,82,0.00,,,0.00,0,Wunderground v.1.15,2013-01-07 01:12:00,
2013-01-06 19:22:00,19.5,15.2,30.23,NNE,16,0.0,0.0,83,0.00,,,0.00,0,Wunderground v.1.15,2013-01-07 01:22:00,
2013-01-06 19:42:00,18.0,13.7,30.23,NNE,16,1.0,1.0,83,0.00,,,0.00,0,Wunderground v.1.15,2013-01-07 01:42:00,
2013-01-06 19:52:00,16.9,12.9,30.22,NNE,16,1.0,1.0,84,0.00,,,0.00,0,Wunderground v.1.15,2013-01-07 01:52:00,
2013-01-06 20:02:00,16.5,13.0,30.22,NNE,16,0.0,0.0,86,0.00,,,0.00,0,Wunderground v.1.15,2013-01-07 02:02:00,
2013-01-06 20:12:00,16.4,13.2,30.22,NNE,16,0.0,0.0,87,0.00,,,0.00,0,Wunderground v.1.15,2013-01-07 02:12:00,
2013-01-06 20:22:00,16.1,12.9,30.22,NNE,16,0.0,0.0,87,0.00,,,0.00,0,Wunderground v.1.15,2013-01-07 02:22:00,
2013-01-06 20:32:00,15.6,12.4,30.23,NNE,16,0.0,0.0,87,0.00,,,0.00,0,Wunderground v.1.15,2013-01-07 02:32:00,
2013-01-06 20:42:00,14.9,11.7,30.23,NNE,16,1.0,1.0,87,0.00,,,0.00,0,Wunderground v.1.15,2013-01-07 02:42:00,
2013-01-06 20:52:00,14.4,11.2,30.24,NNE,16,0.0,0.0,87,0.00,,,0.00,0,Wunderground v.1.15,2013-01-07 02:52:00,
2013-01-06 21:02:00,14.3,11.4,30.24,NNE,16,1.0,1.0,88,0.00,,,0.00,0,Wunderground v.1.15,2013-01-07 03:02:00,
2013-01-06 21:12:00,15.4,13.0,30.24,NNE,16,1.0,1.0,90,0.00,,,0.00,0,Wunderground v.1.15,2013-01-07 03:12:00,
2013-01-06 21:22:00,14.6,11.9,30.23,NNE,16,1.0,1.0,89,0.00,,,0.00,0,Wunderground v.1.15,2013-01-07 03:22:00,
2013-01-06 21:42:00,12.8,10.2,30.24,NNE,16,1.0,1.0,89,0.00,,,0.00,0,Wunderground v.1.15,2013-01-07 03:42:00,
2013-01-06 21:52:00,12.3,9.7,30.24,NNE,16,0.0,0.0,89,0.00,,,0.00,0,Wunderground v.1.15,2013-01-07 03:52:00,
2013-01-06 22:02:00,12.3,9.7,30.25,NNE,16,0.0,0.0,89,0.00,,,0.00,0,Wunderground v.1.15,2013-01-07 04:02:00,
2013-01-06 22:12:00,13.5,11.4,30.25,NNE,16,1.0,2.0,91,0.00,,,0.00,0,Wunderground v.1.15,2013-01-07 04:12:00,
2013-01-06 22:22:00,13.8,11.7,30.24,NNE,16,1.0,1.0,91,0.00,,,0.00,0,Wunderground v.1.15,2013-01-07 04:22:00,
2013-01-06 22:32:00,13.1,10.7,30.24,NNE,16,1.0,1.0,90,0.00,,,0.00,0,Wunderground v.1.15,2013-01-07 04:32:00,
2013-01-06 22:42:00,12.6,10.2,30.24,NNE,16,1.0,1.0,90,0.00,,,0.00,0,Wunderground v.1.15,2013-01-07 04:42:00,
2013-01-06 22:52:00,12.1,9.7,30.24,NNE,16,1.0,1.0,90,0.00,,,0.00,0,Wunderground v.1.15,2013-01-07 04:52:00,
2013-01-06 23:02:00,11.7,9.1,30.25,NNE,16,0.0,0.0,89,0.00,,,0.00,0,Wunderground v.1.15,2013-01-07 05:02:00,
2013-01-06 23:12:00,15.2,13.8,30.25,NNE,16,0.0,0.0,94,0.00,,,0.00,0,Wunderground v.1.15,2013-01-07 05:12:00,
2013-01-06 23:22:00,16.2,14.5,30.24,NNE,16,0.0,0.0,93,0.00,,,0.00,0,Wunderground v.1.15,2013-01-07 05:22:00,
2013-01-06 23:32:00,17.5,15.8,30.24,NNE,16,0.0,1.0,93,0.00,,,0.00,0,Wunderground v.1.15,2013-01-07 05:32:00,
2013-01-06 23:42:00,18.6,16.7,30.24,NNE,16,1.0,1.0,92,0.00,,,0.00,0,Wunderground v.1.15,2013-01-07 05:42:00,
2013-01-06 23:52:00,19.1,16.7,30.24,WNW,282,2.0,4.0,90,0.00,,,0.00,0,Wunderground v.1.15,2013-01-07 05:52:00,